createdAt,value
2019-04-25T00:00:55.509Z,52.20
2019-04-25T00:03:31.921Z,52.10
2019-04-25T00:06:03.677Z,52.20
2019-04-25T00:08:35.131Z,52.60
2019-04-25T00:11:07.974Z,52.20
2019-04-25T00:13:41.674Z,52.00
2019-04-25T00:16:16.051Z,52.30
2019-04-25T00:18:46.988Z,51.80
2019-04-25T00:21:26.857Z,52.00
2019-04-25T00:24:03.298Z,52.00
2019-04-25T00:26:45.226Z,51.80
2019-04-25T00:29:17.306Z,51.70
2019-04-25T00:31:49.310Z,52.20
2019-04-25T00:34:21.826Z,52.10
2019-04-25T00:36:53.395Z,51.60
2019-04-25T00:39:25.390Z,51.90
2019-04-25T00:41:56.971Z,52.30
2019-04-25T00:44:28.544Z,52.70
2019-04-25T00:47:02.292Z,52.20
2019-04-25T00:49:34.163Z,52.10
2019-04-25T00:52:05.654Z,52.30
2019-04-25T00:54:37.820Z,52.60
2019-04-25T00:57:09.421Z,52.50
2019-04-25T00:59:55.576Z,52.80
2019-04-25T01:02:34.652Z,52.60
2019-04-25T01:05:06.961Z,52.50
2019-04-25T01:07:38.345Z,52.50
2019-04-25T01:10:11.932Z,52.90
2019-04-25T01:12:44.578Z,52.80
2019-04-25T01:15:16.553Z,52.70
2019-04-25T01:17:48.869Z,53.40
2019-04-25T01:20:20.851Z,52.70
2019-04-25T01:22:54.307Z,52.80
2019-04-25T01:25:38.335Z,53.00
2019-04-25T01:27:59.442Z,53.20
2019-04-25T01:30:31.134Z,53.40
2019-04-25T01:33:03.476Z,53.30
2019-04-25T01:36:13.351Z,53.10
2019-04-25T01:39:04.367Z,53.40
2019-04-25T01:42:03.625Z,53.30
2019-04-25T01:44:40.765Z,53.70
2019-04-25T01:47:14.213Z,53.40
2019-04-25T01:49:46.459Z,53.50
2019-04-25T01:52:18.506Z,53.70
2019-04-25T01:54:50.558Z,53.50
2019-04-25T01:57:23.933Z,53.50
2019-04-25T01:59:56.282Z,53.50
2019-04-25T02:02:29.436Z,53.70
2019-04-25T02:05:01.000Z,53.60
2019-04-25T02:07:33.381Z,53.90
2019-04-25T02:10:06.251Z,54.00
2019-04-25T02:12:43.613Z,54.00
2019-04-25T02:15:17.546Z,53.90
2019-04-25T02:17:49.136Z,53.90
2019-04-25T02:20:21.316Z,54.20
2019-04-25T02:22:55.085Z,54.00
2019-04-25T02:25:26.819Z,54.40
2019-04-25T02:28:01.471Z,54.30
2019-04-25T02:30:45.342Z,54.30
2019-04-25T02:33:16.876Z,54.00
2019-04-25T02:35:48.130Z,54.00
2019-04-25T02:38:19.477Z,54.30
2019-04-25T02:40:51.204Z,54.10
2019-04-25T02:43:23.902Z,54.00
2019-04-25T02:46:15.130Z,54.00
2019-04-25T02:49:09.121Z,54.10
2019-04-25T02:51:45.202Z,54.10
2019-04-25T02:54:16.843Z,54.40
2019-04-25T02:56:48.564Z,54.10
2019-04-25T02:59:19.900Z,54.50
2019-04-25T03:01:54.036Z,54.40
2019-04-25T03:04:25.183Z,55.10
2019-04-25T03:06:58.387Z,54.60
2019-04-25T03:09:29.836Z,54.60
2019-04-25T03:12:01.740Z,54.50
2019-04-25T03:14:35.137Z,54.40
2019-04-25T03:17:08.646Z,54.10
2019-04-25T03:19:59.312Z,55.40
2019-04-25T03:22:30.916Z,54.80
2019-04-25T03:25:04.519Z,54.50
2019-04-25T03:27:36.092Z,54.40
2019-04-25T03:30:11.796Z,54.50
2019-04-25T03:32:41.347Z,54.70
2019-04-25T03:35:13.585Z,54.90
2019-04-25T03:37:45.202Z,54.50
2019-04-25T03:40:16.576Z,54.80
2019-04-25T03:42:48.815Z,54.80
2019-04-25T03:45:20.181Z,54.80
2019-04-25T03:47:52.796Z,54.80
2019-04-25T03:50:24.627Z,54.70
2019-04-25T03:52:55.835Z,54.80
2019-04-25T03:55:27.063Z,54.80
2019-04-25T03:57:58.298Z,55.20
2019-04-25T04:00:29.682Z,55.20
2019-04-25T04:03:05.119Z,55.30
2019-04-25T04:05:35.717Z,55.20
2019-04-25T04:08:07.625Z,55.20
2019-04-25T04:10:40.129Z,55.10
2019-04-25T04:13:12.290Z,55.40
2019-04-25T04:15:43.691Z,55.30
2019-04-25T04:18:34.050Z,55.30
2019-04-25T04:21:17.427Z,55.20
2019-04-25T04:24:04.069Z,55.10
2019-04-25T04:26:35.623Z,55.40
2019-04-25T04:29:07.756Z,55.50
2019-04-25T04:31:39.088Z,55.40
2019-04-25T04:34:10.636Z,55.30
2019-04-25T04:36:43.733Z,55.20
2019-04-25T04:39:16.601Z,55.30
2019-04-25T04:41:47.795Z,55.50
2019-04-25T04:44:19.750Z,55.00
2019-04-25T04:46:51.075Z,55.30
2019-04-25T04:49:23.828Z,55.40
2019-04-25T04:51:55.155Z,55.50
2019-04-25T04:54:26.513Z,55.70
2019-04-25T04:56:58.827Z,55.50
2019-04-25T04:59:30.278Z,55.60
2019-04-25T05:02:30.104Z,55.80
2019-04-25T05:05:14.254Z,55.80
2019-04-25T05:08:10.221Z,55.30
2019-04-25T05:10:43.265Z,55.50
2019-04-25T05:13:16.631Z,55.70
2019-04-25T05:15:48.289Z,55.90
2019-04-25T05:18:32.939Z,56.10
2019-04-25T05:20:54.276Z,56.20
2019-04-25T05:23:25.766Z,56.20
2019-04-25T05:25:57.382Z,56.00
2019-04-25T05:28:29.759Z,56.70
2019-04-25T05:31:19.969Z,56.60
2019-04-25T05:33:53.509Z,56.50
2019-04-25T05:36:27.993Z,56.30
2019-04-25T05:39:04.061Z,56.30
2019-04-25T05:41:56.243Z,56.40
2019-04-25T05:44:38.966Z,56.30
2019-04-25T05:47:09.563Z,55.70
2019-04-25T05:49:54.377Z,56.10
2019-04-25T05:52:26.743Z,56.30
2019-04-25T05:55:10.780Z,56.40
2019-04-25T05:57:47.322Z,56.80
2019-04-25T06:00:39.629Z,56.30
2019-04-25T06:03:28.690Z,56.00
2019-04-25T06:06:26.112Z,56.20
2019-04-25T06:12:25.863Z,55.90
2019-04-25T06:14:57.393Z,55.40
2019-04-25T06:17:57.360Z,56.00
2019-04-25T06:20:34.324Z,54.70
2019-04-25T06:23:20.869Z,55.30
2019-04-25T06:25:53.708Z,54.10
2019-04-25T06:28:26.948Z,52.90
2019-04-25T06:30:58.571Z,53.30
2019-04-25T06:33:29.977Z,54.10
2019-04-25T06:36:01.218Z,52.90
2019-04-25T06:38:33.653Z,52.50
2019-04-25T06:41:05.493Z,53.50
2019-04-25T06:43:38.703Z,54.00
2019-04-25T06:46:30.655Z,54.00
2019-04-25T06:49:10.822Z,54.20
2019-04-25T06:51:54.914Z,52.80
2019-04-25T06:54:27.225Z,52.40
2019-04-25T06:57:00.370Z,52.00
2019-04-25T06:59:32.833Z,52.10
2019-04-25T07:02:04.661Z,52.80
2019-04-25T07:04:35.981Z,53.20
2019-04-25T07:07:11.999Z,53.60
2019-04-25T07:09:40.751Z,52.90
2019-04-25T07:12:13.464Z,52.10
2019-04-25T07:14:45.415Z,53.20
2019-04-25T07:17:16.743Z,53.40
2019-04-25T07:19:48.624Z,51.90
2019-04-25T07:22:19.913Z,53.20
2019-04-25T07:24:51.575Z,53.60
2019-04-25T07:27:47.127Z,52.70
2019-04-25T07:30:46.831Z,52.80
2019-04-25T07:33:20.915Z,51.30
2019-04-25T07:35:56.474Z,51.20
2019-04-25T07:38:26.868Z,51.30
2019-04-25T07:41:03.578Z,50.50
2019-04-25T07:43:36.077Z,50.70
2019-04-25T07:46:08.121Z,51.80
2019-04-25T07:48:39.782Z,52.00
2019-04-25T07:51:12.199Z,52.80
2019-04-25T07:53:48.782Z,51.20
2019-04-25T07:56:20.083Z,52.10
2019-04-25T07:58:52.750Z,52.00
2019-04-25T08:01:24.646Z,52.70
2019-04-25T08:03:56.342Z,52.80
2019-04-25T08:06:27.750Z,51.50
2019-04-25T08:08:59.026Z,52.20
2019-04-25T08:11:31.898Z,52.80
2019-04-25T08:14:24.594Z,52.90
2019-04-25T08:16:57.979Z,52.60
2019-04-25T08:19:29.844Z,51.90
2019-04-25T08:22:03.634Z,53.20
2019-04-25T08:24:37.935Z,51.10
2019-04-25T08:27:09.950Z,51.10
2019-04-25T08:29:41.418Z,50.20
2019-04-25T08:32:14.278Z,48.80
2019-04-25T08:34:46.573Z,50.00
2019-04-25T08:37:21.054Z,49.20
2019-04-25T08:39:53.899Z,49.30
2019-04-25T08:42:25.230Z,47.50
2019-04-25T08:44:57.078Z,48.10
2019-04-25T08:47:28.706Z,47.40
2019-04-25T08:50:31.411Z,46.20
2019-04-25T08:53:00.184Z,46.90
2019-04-25T08:55:45.739Z,46.10
2019-04-25T08:58:36.547Z,47.60
2019-04-25T09:01:25.691Z,48.00
2019-04-25T09:04:05.174Z,46.50
2019-04-25T09:06:37.334Z,46.50
2019-04-25T09:09:08.558Z,47.30
2019-04-25T09:11:40.121Z,47.60
2019-04-25T09:14:11.477Z,47.20
2019-04-25T09:16:44.233Z,47.60
2019-04-25T09:19:16.363Z,47.70
2019-04-25T09:21:49.464Z,48.50
2019-04-25T09:24:21.206Z,47.30
2019-04-25T09:26:54.094Z,47.50
2019-04-25T09:29:25.820Z,46.80
2019-04-25T09:31:57.889Z,46.50
2019-04-25T09:34:29.582Z,47.70
2019-04-25T09:37:00.823Z,47.90
2019-04-25T09:39:39.814Z,46.60
2019-04-25T09:42:11.496Z,47.80
2019-04-25T09:45:07.192Z,47.60
2019-04-25T09:47:39.268Z,46.10
2019-04-25T09:50:15.837Z,44.80
2019-04-25T09:52:47.147Z,45.40
2019-04-25T09:55:34.282Z,43.40
2019-04-25T09:58:15.649Z,44.30
2019-04-25T10:00:50.499Z,44.60
2019-04-25T10:03:23.382Z,44.20
2019-04-25T10:05:54.591Z,45.80
2019-04-25T10:08:25.634Z,45.80
2019-04-25T10:10:57.094Z,46.60
2019-04-25T10:13:28.344Z,46.00
2019-04-25T10:16:08.084Z,47.30
2019-04-25T10:18:39.957Z,47.60
2019-04-25T10:21:15.429Z,47.30
2019-04-25T10:23:48.169Z,47.30
2019-04-25T10:26:21.611Z,46.50
2019-04-25T10:28:53.828Z,45.30
2019-04-25T10:31:25.512Z,46.90
2019-04-25T10:33:57.172Z,46.80
2019-04-25T10:36:28.450Z,46.40
2019-04-25T10:39:07.515Z,47.00
2019-04-25T10:41:35.866Z,45.60
2019-04-25T10:44:07.668Z,45.00
2019-04-25T10:46:40.285Z,45.40
2019-04-25T10:49:14.551Z,45.90
2019-04-25T10:51:48.007Z,46.20
2019-04-25T10:54:20.477Z,47.00
2019-04-25T10:56:52.377Z,46.10
2019-04-25T10:59:24.440Z,45.30
2019-04-25T11:01:56.520Z,46.40
2019-04-25T11:04:37.174Z,45.70
2019-04-25T11:07:08.478Z,46.30
2019-04-25T11:09:40.637Z,46.60
2019-04-25T11:12:14.657Z,47.30
2019-04-25T11:14:46.437Z,46.00
2019-04-25T11:17:18.263Z,43.60
2019-04-25T11:19:49.985Z,42.90
2019-04-25T11:22:21.412Z,42.10
2019-04-25T11:24:53.097Z,44.30
2019-04-25T11:27:25.812Z,42.00
2019-04-25T11:30:08.542Z,42.40
2019-04-25T11:32:33.818Z,43.30
2019-04-25T11:35:08.936Z,44.00
2019-04-25T11:37:43.410Z,42.10
2019-04-25T11:40:30.111Z,41.80
2019-04-25T11:43:04.280Z,41.30
2019-04-25T11:45:38.086Z,39.80
2019-04-25T11:48:09.583Z,38.90
2019-04-25T11:50:44.314Z,39.80
2019-04-25T11:53:15.358Z,40.10
2019-04-25T11:55:48.181Z,38.00
2019-04-25T11:58:20.905Z,36.10
2019-04-25T12:00:54.136Z,35.70
2019-04-25T12:03:26.136Z,35.00
2019-04-25T12:05:57.779Z,35.10
2019-04-25T12:08:29.383Z,34.40
2019-04-25T12:11:00.768Z,33.20
2019-04-25T12:13:34.446Z,33.20
2019-04-25T12:16:06.430Z,31.40
2019-04-25T12:18:37.626Z,31.80
2019-04-25T12:21:09.350Z,30.70
2019-04-25T12:23:40.996Z,30.40
2019-04-25T12:26:14.194Z,30.70
2019-04-25T12:28:47.242Z,31.40
2019-04-25T12:31:21.757Z,29.90
2019-04-25T12:33:54.808Z,31.30
2019-04-25T12:39:28.056Z,28.60
2019-04-25T12:42:04.451Z,28.30
2019-04-25T12:44:46.249Z,27.80
2019-04-25T12:47:21.436Z,28.50
2019-04-25T12:49:56.112Z,28.60
2019-04-25T12:52:29.698Z,28.10
2019-04-25T12:55:05.452Z,28.70
2019-04-25T12:57:41.693Z,29.10
2019-04-25T13:00:24.218Z,29.50
2019-04-25T13:02:56.595Z,28.90
2019-04-25T13:05:28.847Z,28.40
2019-04-25T13:08:03.541Z,28.60
2019-04-25T13:10:35.837Z,28.20
2019-04-25T13:13:09.636Z,28.40
2019-04-25T13:15:45.709Z,27.80
2019-04-25T13:18:18.249Z,28.10
2019-04-25T13:20:56.081Z,27.60
2019-04-25T13:23:31.963Z,27.90
2019-04-25T13:26:08.945Z,27.90
2019-04-25T13:29:13.363Z,27.80
2019-04-25T13:32:05.265Z,28.00
2019-04-25T13:34:45.001Z,28.10
2019-04-25T13:37:21.402Z,28.70
2019-04-25T13:39:54.112Z,29.20
2019-04-25T13:42:26.902Z,29.00
2019-04-25T13:45:26.785Z,29.40
2019-04-25T13:48:06.649Z,30.10
2019-04-25T13:50:46.574Z,29.70
2019-04-25T13:53:18.493Z,29.90
2019-04-25T13:55:59.751Z,29.40
2019-04-25T13:58:45.698Z,29.20
2019-04-25T14:01:37.125Z,30.90
2019-04-25T14:04:19.439Z,30.70
2019-04-25T14:07:08.917Z,32.40
2019-04-25T14:09:48.096Z,30.40
2019-04-25T14:12:21.442Z,29.90
2019-04-25T14:14:54.046Z,29.50
2019-04-25T14:17:58.422Z,30.10
2019-04-25T14:20:41.206Z,30.90
2019-04-25T14:23:15.027Z,30.40
2019-04-25T14:25:52.216Z,31.90
2019-04-25T14:28:35.392Z,31.10
2019-04-25T14:31:35.472Z,30.30
2019-04-25T14:34:03.253Z,30.40
2019-04-25T14:36:48.982Z,29.60
2019-04-25T14:39:22.635Z,30.30
2019-04-25T14:42:00.411Z,29.40
2019-04-25T14:44:35.618Z,30.00
2019-04-25T14:47:09.377Z,30.20
2019-04-25T14:49:43.683Z,29.40
2019-04-25T14:52:35.618Z,30.10
2019-04-25T14:55:31.639Z,30.40
2019-04-25T14:58:13.254Z,31.40
2019-04-25T15:00:47.297Z,30.70
2019-04-25T15:03:21.413Z,32.70
2019-04-25T15:05:56.917Z,30.80
2019-04-25T15:08:30.759Z,32.30
2019-04-25T15:11:03.803Z,32.30
2019-04-25T15:13:37.872Z,31.60
2019-04-25T15:16:10.545Z,32.00
2019-04-25T15:18:56.709Z,31.70
2019-04-25T15:21:31.783Z,31.90
2019-04-25T15:24:03.622Z,30.80
2019-04-25T15:26:42.474Z,30.80
2019-04-25T15:29:10.993Z,30.00
2019-04-25T15:31:42.614Z,29.70
2019-04-25T15:34:17.638Z,29.20
2019-04-25T15:36:58.099Z,29.40
2019-04-25T15:39:59.401Z,30.20
2019-04-25T15:43:01.119Z,29.10
2019-04-25T15:46:07.097Z,29.50
2019-04-25T15:48:50.925Z,30.10
2019-04-25T15:51:29.849Z,29.40
2019-04-25T15:54:02.280Z,29.50
2019-04-25T16:00:26.956Z,30.90
2019-04-25T16:02:59.113Z,32.30
2019-04-25T16:05:36.413Z,31.60
2019-04-25T16:08:09.801Z,31.40
2019-04-25T16:10:44.023Z,33.40
2019-04-25T16:13:16.054Z,34.80
2019-04-25T16:16:00.256Z,34.10
2019-04-25T16:18:33.603Z,34.10
2019-04-25T16:21:05.037Z,35.40
2019-04-25T16:23:37.809Z,35.10
2019-04-25T16:26:09.919Z,34.40
2019-04-25T16:28:43.417Z,33.90
2019-04-25T16:31:21.100Z,33.90
2019-04-25T16:33:56.573Z,32.70
2019-04-25T16:36:32.520Z,32.50
2019-04-25T16:39:09.534Z,33.30
2019-04-25T16:41:45.451Z,32.20
2019-04-25T16:44:20.396Z,33.60
2019-04-25T16:46:58.353Z,33.30
2019-04-25T16:49:33.058Z,33.60
2019-04-25T16:52:08.577Z,34.30
2019-04-25T16:54:43.147Z,35.10
2019-04-25T16:57:20.572Z,33.60
2019-04-25T16:59:56.521Z,33.00
2019-04-25T17:02:38.293Z,33.80
2019-04-25T17:05:17.588Z,33.20
2019-04-25T17:07:56.482Z,33.80
2019-04-25T17:10:32.804Z,32.80
2019-04-25T17:13:50.871Z,33.20
2019-04-25T17:16:48.421Z,32.40
2019-04-25T17:20:24.715Z,33.50
2019-04-25T17:23:04.585Z,33.50
2019-04-25T17:29:21.649Z,33.80
2019-04-25T17:32:24.021Z,33.90
2019-04-25T17:35:55.113Z,33.50
2019-04-25T17:38:48.177Z,33.60
2019-04-25T17:41:51.820Z,33.50
2019-04-25T17:44:45.748Z,32.80
2019-04-25T17:47:34.573Z,33.30
2019-04-25T17:50:23.751Z,32.60
2019-04-25T17:53:01.581Z,33.00
2019-04-25T17:55:49.577Z,33.90
2019-04-25T17:58:29.111Z,34.20
2019-04-25T18:01:09.418Z,34.00
2019-04-25T18:03:44.047Z,33.50
2019-04-25T18:06:19.600Z,33.90
2019-04-25T18:08:54.432Z,34.00
2019-04-25T18:11:26.630Z,34.50
2019-04-25T18:13:58.547Z,34.10
2019-04-25T18:17:27.333Z,34.60
2019-04-25T18:20:09.995Z,35.40
2019-04-25T18:23:08.166Z,35.50
2019-04-25T18:26:20.221Z,35.60
2019-04-25T18:28:54.565Z,36.00
2019-04-25T18:31:48.456Z,35.70
2019-04-25T18:34:15.495Z,36.70
2019-04-25T18:37:14.024Z,37.20
2019-04-25T18:39:59.412Z,38.20
2019-04-25T18:42:46.194Z,38.20
2019-04-25T18:45:24.150Z,37.50
2019-04-25T18:47:59.388Z,38.00
2019-04-25T18:50:47.583Z,37.20
2019-04-25T18:53:45.175Z,37.10
2019-04-25T18:56:27.135Z,37.10
2019-04-25T18:59:19.940Z,37.80
2019-04-25T19:02:25.835Z,36.50
2019-04-25T19:05:27.292Z,36.40
2019-04-25T19:08:01.597Z,36.30
2019-04-25T19:10:35.510Z,37.40
2019-04-25T19:13:13.392Z,36.70
2019-04-25T19:15:59.469Z,36.40
2019-04-25T19:19:00.724Z,36.30
2019-04-25T19:21:36.870Z,35.90
2019-04-25T19:24:15.074Z,35.70
2019-04-25T19:26:55.587Z,36.30
2019-04-25T19:29:42.293Z,35.60
2019-04-25T19:32:27.492Z,35.80
2019-04-25T19:35:09.741Z,35.90
2019-04-25T19:37:59.471Z,35.60
2019-04-25T19:40:44.025Z,35.80
2019-04-25T19:43:31.398Z,36.30
2019-04-25T19:46:10.567Z,35.80
2019-04-25T19:48:49.068Z,35.60
2019-04-25T19:51:26.685Z,36.10
2019-04-25T19:54:11.514Z,36.60
2019-04-25T19:57:09.838Z,35.80
2019-04-25T20:03:22.308Z,36.20
2019-04-25T20:06:31.684Z,36.50
2019-04-25T20:09:23.366Z,36.10
2019-04-25T20:12:19.576Z,36.90
2019-04-25T20:15:20.817Z,36.80
2019-04-25T20:18:26.448Z,36.40
2019-04-25T20:21:20.670Z,36.80
2019-04-25T20:24:46.295Z,36.70
2019-04-25T20:27:41.848Z,37.20
2019-04-25T20:30:31.422Z,37.20
2019-04-25T20:33:32.203Z,36.70
2019-04-25T20:36:21.231Z,36.50
2019-04-25T20:39:01.902Z,36.60
2019-04-25T20:41:45.465Z,36.30
2019-04-25T20:44:20.555Z,36.40
2019-04-25T20:47:09.665Z,36.10
2019-04-25T20:50:13.501Z,36.10
2019-04-25T20:52:53.271Z,36.40
2019-04-25T20:55:32.303Z,35.80
2019-04-25T20:58:24.072Z,36.50
2019-04-25T21:01:21.856Z,35.80
2019-04-25T21:04:32.637Z,35.70
2019-04-25T21:07:17.275Z,36.90
2019-04-25T21:10:13.675Z,36.10
2019-04-25T21:13:00.168Z,36.70
2019-04-25T21:18:50.997Z,38.50
2019-04-25T21:21:38.054Z,36.80
2019-04-25T21:24:39.097Z,37.10
2019-04-25T21:27:35.125Z,38.20
2019-04-25T21:30:30.313Z,38.80
2019-04-25T21:33:10.875Z,38.50
2019-04-25T21:35:55.512Z,38.70
2019-04-25T21:38:32.350Z,38.80
2019-04-25T21:41:19.690Z,39.20
2019-04-25T21:44:05.717Z,38.40
2019-04-25T21:46:53.665Z,38.90
2019-04-25T21:49:37.280Z,38.90
2019-04-25T21:52:18.694Z,38.30
2019-04-25T21:55:02.306Z,37.90
2019-04-25T21:57:31.710Z,37.50
2019-04-25T22:00:18.194Z,37.30
2019-04-25T22:03:07.577Z,37.30
2019-04-25T22:06:07.798Z,38.10
2019-04-25T22:08:46.585Z,37.20
2019-04-25T22:11:43.364Z,36.80
2019-04-25T22:14:45.501Z,36.70
2019-04-25T22:17:29.293Z,36.90
2019-04-25T22:20:12.502Z,36.90
2019-04-25T22:22:45.724Z,37.10
2019-04-25T22:25:18.574Z,37.00
2019-04-25T22:27:53.484Z,36.80
2019-04-25T22:30:29.429Z,38.50
2019-04-25T22:33:29.680Z,37.60
2019-04-25T22:36:08.194Z,37.80
2019-04-25T22:38:43.152Z,37.90
2019-04-25T22:41:17.284Z,37.80
2019-04-25T22:43:53.783Z,37.80
2019-04-25T22:46:29.704Z,38.10
2019-04-25T22:49:03.540Z,37.90
2019-04-25T22:51:35.343Z,37.80
2019-04-25T22:54:07.537Z,39.40
2019-04-25T22:56:39.506Z,38.40
2019-04-25T22:59:12.155Z,38.20
2019-04-25T23:02:03.525Z,38.20
2019-04-25T23:04:50.011Z,38.10
2019-04-25T23:07:23.806Z,38.10
2019-04-25T23:09:56.067Z,38.10
2019-04-25T23:12:30.950Z,38.20
2019-04-25T23:15:02.605Z,38.40
2019-04-25T23:17:37.172Z,38.60
2019-04-25T23:20:13.842Z,38.80
2019-04-25T23:22:48.752Z,38.70
2019-04-25T23:25:27.430Z,38.60
2019-04-25T23:28:05.221Z,38.40
2019-04-25T23:31:02.493Z,38.60
2019-04-25T23:33:35.538Z,39.80
2019-04-25T23:36:07.721Z,39.10
2019-04-25T23:38:39.290Z,40.60
2019-04-25T23:41:11.514Z,39.40
2019-04-25T23:43:43.286Z,40.10
2019-04-25T23:46:14.797Z,39.90
2019-04-25T23:48:46.654Z,39.60
2019-04-25T23:51:19.049Z,39.30
2019-04-25T23:53:52.135Z,39.30
2019-04-25T23:56:24.108Z,39.30
2019-04-25T23:58:56.184Z,39.00
